createdAt,value
2018-12-17T00:00:47.356Z,100074.64
2018-12-17T00:05:50.969Z,100078.36
2018-12-17T00:10:54.425Z,100080.56
2018-12-17T00:15:58.101Z,100072.61
2018-12-17T00:21:01.481Z,100068.16
2018-12-17T00:26:05.035Z,100078.84
2018-12-17T00:31:08.519Z,100083.83
2018-12-17T00:36:11.921Z,100076.16
2018-12-17T00:41:15.332Z,100077.59
2018-12-17T00:46:18.800Z,100090.47
2018-12-17T00:51:22.338Z,100085.95
2018-12-17T00:56:26.340Z,100085.95
2018-12-17T01:01:29.713Z,100088.27
2018-12-17T01:06:33.075Z,100099.13
2018-12-17T01:11:36.492Z,100110.88
2018-12-17T01:16:39.834Z,100124.58
2018-12-17T01:21:43.674Z,100133.83
2018-12-17T01:26:47.026Z,100132.25
2018-12-17T01:31:50.420Z,100131.51
2018-12-17T01:36:53.833Z,100136.16
2018-12-17T01:41:57.227Z,100144.06
2018-12-17T01:47:03.206Z,100144.43
2018-12-17T01:52:06.550Z,100142.11
2018-12-17T01:57:09.897Z,100147.41
2018-12-17T02:02:13.438Z,100148.09
2018-12-17T02:07:16.808Z,100150.53
2018-12-17T02:12:20.193Z,100149.86
2018-12-17T02:17:23.547Z,100154.03
2018-12-17T02:22:27.028Z,100151.34
2018-12-17T02:27:30.397Z,100153.59
2018-12-17T02:32:33.747Z,100153.16
2018-12-17T02:37:37.090Z,100162.11
2018-12-17T02:42:40.591Z,100162.70
2018-12-17T02:47:44.105Z,100165.77
2018-12-17T02:52:47.522Z,100170.09
2018-12-17T02:57:51.043Z,100170.73
2018-12-17T03:02:54.454Z,100174.94
2018-12-17T03:07:57.874Z,100183.20
2018-12-17T03:13:01.237Z,100184.28
2018-12-17T03:18:04.817Z,100193.63
2018-12-17T03:23:08.167Z,100201.14
2018-12-17T03:28:11.588Z,100200.70
2018-12-17T03:33:14.991Z,100203.69
2018-12-17T03:38:18.437Z,100204.77
2018-12-17T03:43:21.831Z,100210.78
2018-12-17T03:48:25.351Z,100213.95
2018-12-17T03:53:28.690Z,100214.26
2018-12-17T03:58:32.082Z,100225.01
2018-12-17T04:03:35.502Z,100227.17
2018-12-17T04:08:38.843Z,100231.58
2018-12-17T04:13:42.207Z,100236.70
2018-12-17T04:18:45.722Z,100232.96
2018-12-17T04:23:49.120Z,100241.33
2018-12-17T04:28:52.463Z,100246.63
2018-12-17T04:33:56.016Z,100262.16
2018-12-17T04:38:59.458Z,100267.24
2018-12-17T04:44:03.147Z,100265.84
2018-12-17T04:49:06.496Z,100268.73
2018-12-17T04:54:10.078Z,100264.03
2018-12-17T04:59:14.717Z,100274.99
2018-12-17T05:04:18.603Z,100279.59
2018-12-17T05:09:22.255Z,100292.80
2018-12-17T05:14:25.698Z,100289.63
2018-12-17T05:19:29.271Z,100306.52
2018-12-17T05:24:33.042Z,100313.36
2018-12-17T05:29:36.545Z,100329.85
2018-12-17T05:34:39.966Z,100337.83
2018-12-17T05:39:43.546Z,100339.19
2018-12-17T05:44:46.995Z,100341.41
2018-12-17T05:49:50.499Z,100347.16
2018-12-17T05:54:54.159Z,100343.80
2018-12-17T05:59:57.592Z,100350.80
2018-12-17T06:05:01.028Z,100358.68
2018-12-17T06:10:04.784Z,100369.52
2018-12-17T06:15:08.448Z,100376.03
2018-12-17T06:20:11.948Z,100378.15
2018-12-17T06:25:15.368Z,100380.73
2018-12-17T06:30:18.894Z,100386.70
2018-12-17T06:35:22.399Z,100391.88
2018-12-17T06:40:25.863Z,100394.46
2018-12-17T06:45:29.359Z,100403.28
2018-12-17T06:50:32.805Z,100399.56
2018-12-17T06:55:36.174Z,100401.19
2018-12-17T07:00:39.551Z,100396.47
2018-12-17T07:05:43.048Z,100408.77
2018-12-17T07:10:47.350Z,100409.25
2018-12-17T07:15:50.823Z,100417.13
2018-12-17T07:21:00.741Z,100433.73
2018-12-17T07:26:04.256Z,100435.66
2018-12-17T07:31:07.631Z,100438.53
2018-12-17T07:36:11.084Z,100444.77
2018-12-17T07:41:14.581Z,100454.07
2018-12-17T07:46:18.055Z,100458.48
2018-12-17T07:51:21.580Z,100470.46
2018-12-17T07:56:24.926Z,100485.99
2018-12-17T08:01:28.322Z,100486.09
2018-12-17T08:06:31.700Z,100488.03
2018-12-17T08:11:35.245Z,100503.20
2018-12-17T08:16:38.727Z,100514.55
2018-12-17T08:21:42.061Z,100528.64
2018-12-17T08:26:45.377Z,100540.80
2018-12-17T08:31:48.870Z,100545.37
2018-12-17T08:36:52.294Z,100549.89
2018-12-17T08:41:55.638Z,100553.64
2018-12-17T08:46:58.962Z,100553.94
2018-12-17T08:52:02.286Z,100550.66
2018-12-17T08:57:05.900Z,100547.86
2018-12-17T09:02:09.394Z,100551.13
2018-12-17T09:07:12.847Z,100551.89
2018-12-17T09:12:16.278Z,100558.95
2018-12-17T09:17:19.702Z,100555.20
2018-12-17T09:22:23.109Z,100562.98
2018-12-17T09:27:26.449Z,100565.22
2018-12-17T09:32:29.862Z,100565.51
2018-12-17T09:37:33.350Z,100575.16
2018-12-17T09:42:36.880Z,100586.35
2018-12-17T09:47:40.236Z,100585.61
2018-12-17T09:52:43.570Z,100585.39
2018-12-17T09:57:46.932Z,100582.70
2018-12-17T10:02:50.268Z,100582.61
2018-12-17T10:07:53.595Z,100582.03
2018-12-17T10:12:56.924Z,100579.81
2018-12-17T10:18:00.263Z,100575.80
2018-12-17T10:23:03.681Z,100560.38
2018-12-17T10:28:07.122Z,100553.64
2018-12-17T10:33:10.515Z,100556.11
2018-12-17T10:38:13.893Z,100564.48
2018-12-17T10:43:17.420Z,100569.37
2018-12-17T10:48:20.870Z,100566.21
2018-12-17T10:53:24.258Z,100568.52
2018-12-17T10:58:27.650Z,100562.73
2018-12-17T11:08:51.768Z,100554.77
2018-12-17T11:13:55.110Z,100561.27
2018-12-17T11:18:58.589Z,100562.33
2018-12-17T11:24:02.034Z,100570.84
2018-12-17T11:29:05.564Z,100566.59
2018-12-17T11:34:15.698Z,100573.78
2018-12-17T11:39:19.057Z,100571.27
2018-12-17T11:44:22.418Z,100572.22
2018-12-17T11:49:25.871Z,100570.02
2018-12-17T11:54:29.239Z,100571.84
2018-12-17T11:59:32.613Z,100561.34
2018-12-17T12:04:36.055Z,100563.33
2018-12-17T12:09:39.529Z,100567.53
2018-12-17T12:14:43.068Z,100565.63
2018-12-17T12:19:46.658Z,100562.02
2018-12-17T12:24:50.518Z,100571.80
2018-12-17T12:29:54.225Z,100573.78
2018-12-17T12:34:57.851Z,100582.70
2018-12-17T12:40:02.222Z,100578.55
2018-12-17T12:45:07.174Z,100578.44
2018-12-17T12:50:10.699Z,100581.61
2018-12-17T12:55:14.018Z,100588.42
2018-12-17T13:00:17.446Z,100585.32
2018-12-17T13:05:20.866Z,100590.86
2018-12-17T13:10:24.190Z,100592.95
2018-12-17T13:15:27.508Z,100600.02
2018-12-17T13:20:31.001Z,100597.05
2018-12-17T13:25:38.469Z,100611.08
2018-12-17T13:30:41.862Z,100602.30
2018-12-17T13:35:45.215Z,100609.25
2018-12-17T13:40:48.641Z,100605.30
2018-12-17T13:45:52.045Z,100605.99
2018-12-17T13:50:57.457Z,100604.80
2018-12-17T13:56:00.905Z,100609.48
2018-12-17T14:01:04.406Z,100616.97
2018-12-17T14:06:07.777Z,100606.87
2018-12-17T14:11:11.106Z,100609.27
2018-12-17T14:16:14.878Z,100614.33
2018-12-17T14:21:23.747Z,100615.27
2018-12-17T14:26:27.068Z,100623.39
2018-12-17T14:31:30.466Z,100625.66
2018-12-17T14:36:33.870Z,100628.92
2018-12-17T14:41:37.254Z,100637.31
2018-12-17T14:46:45.810Z,100646.12
2018-12-17T14:51:49.203Z,100649.06
2018-12-17T14:56:52.524Z,100652.83
2018-12-17T15:01:55.867Z,100661.75
2018-12-17T15:06:59.353Z,100667.25
2018-12-17T15:12:02.836Z,100664.21
2018-12-17T15:17:06.241Z,100670.09
2018-12-17T15:22:09.955Z,100681.25
2018-12-17T15:27:13.557Z,100682.13
2018-12-17T15:32:17.077Z,100688.36
2018-12-17T15:37:20.504Z,100690.97
2018-12-17T15:42:23.890Z,100708.41
2018-12-17T15:47:28.064Z,100709.88
2018-12-17T15:52:31.538Z,100707.84
2018-12-17T15:57:34.955Z,100704.24
2018-12-17T16:02:38.295Z,100702.05
2018-12-17T16:07:41.660Z,100704.48
2018-12-17T16:12:45.012Z,100707.06
2018-12-17T16:17:48.470Z,100713.31
2018-12-17T16:22:51.933Z,100721.00
2018-12-17T16:27:55.394Z,100732.23
2018-12-17T16:32:58.870Z,100739.98
2018-12-17T16:38:02.398Z,100745.85
2018-12-17T16:43:05.915Z,100752.89
2018-12-17T16:48:09.298Z,100763.45
2018-12-17T16:53:12.689Z,100763.67
2018-12-17T16:58:16.127Z,100763.95
2018-12-17T17:03:19.470Z,100767.83
2018-12-17T17:08:22.846Z,100778.12
2018-12-17T17:13:26.186Z,100777.98
2018-12-17T17:18:29.571Z,100786.42
2018-12-17T17:23:33.022Z,100791.42
2018-12-17T17:28:36.435Z,100797.58
2018-12-17T17:33:39.926Z,100800.15
2018-12-17T17:38:43.504Z,100802.45
2018-12-17T17:43:46.877Z,100814.19
2018-12-17T17:48:50.197Z,100813.32
2018-12-17T17:53:53.711Z,100816.39
2018-12-17T17:58:57.382Z,100822.16
2018-12-17T18:04:00.753Z,100825.81
2018-12-17T18:09:07.180Z,100833.78
2018-12-17T18:14:10.505Z,100831.95
2018-12-17T18:19:13.862Z,100836.00
2018-12-17T18:24:17.351Z,100845.25
2018-12-17T18:29:20.745Z,100852.36
2018-12-17T18:34:24.124Z,100865.23
2018-12-17T18:39:27.640Z,100876.91
2018-12-17T18:44:30.993Z,100883.05
2018-12-17T18:49:34.420Z,100887.09
2018-12-17T18:54:37.880Z,100894.97
2018-12-17T18:59:41.434Z,100893.08
2018-12-17T19:04:44.966Z,100897.33
2018-12-17T19:09:48.338Z,100906.81
2018-12-17T19:14:51.788Z,100917.91
2018-12-17T19:19:55.150Z,100916.72
2018-12-17T19:24:58.590Z,100912.59
2018-12-17T19:30:02.198Z,100915.47
2018-12-17T19:35:05.921Z,100919.80
2018-12-17T19:40:09.709Z,100930.56
2018-12-17T19:45:13.325Z,100932.48
2018-12-17T19:50:16.662Z,100934.12
2018-12-17T19:55:20.090Z,100934.20
2018-12-17T20:00:23.545Z,100936.75
2018-12-17T20:05:27.059Z,100942.32
2018-12-17T20:10:30.498Z,100947.25
2018-12-17T20:15:33.925Z,100946.68
2018-12-17T20:20:37.398Z,100950.02
2018-12-17T20:25:40.989Z,100954.53
2018-12-17T20:30:44.343Z,100956.20
2018-12-17T20:35:47.767Z,100956.10
2018-12-17T20:40:51.129Z,100961.65
2018-12-17T20:45:54.500Z,100961.55
2018-12-17T20:50:57.855Z,100961.64
2018-12-17T20:56:01.258Z,100957.51
2018-12-17T21:01:04.816Z,100961.00
2018-12-17T21:06:08.305Z,100965.48
2018-12-17T21:11:11.825Z,100966.94
2018-12-17T21:16:15.191Z,100973.28
2018-12-17T21:21:18.555Z,100974.91
2018-12-17T21:26:21.986Z,100974.62
2018-12-17T21:31:25.335Z,100966.45
2018-12-17T21:36:28.702Z,100968.83
2018-12-17T21:41:32.055Z,100978.02
2018-12-17T21:46:35.475Z,100976.26
2018-12-17T21:51:38.859Z,100989.91
2018-12-17T21:56:42.370Z,100991.39
2018-12-17T22:01:45.969Z,100991.48
2018-12-17T22:06:49.332Z,100996.39
2018-12-17T22:11:52.823Z,101004.37
2018-12-17T22:16:56.276Z,101011.80
2018-12-17T22:21:59.677Z,100997.80
2018-12-17T22:27:03.019Z,101020.43
2018-12-17T22:32:06.390Z,101018.12
2018-12-17T22:37:09.830Z,101014.88
2018-12-17T22:42:13.277Z,101016.78
2018-12-17T22:47:17.011Z,101013.92
2018-12-17T22:52:20.378Z,101014.69
2018-12-17T22:57:23.731Z,101014.78
2018-12-17T23:02:27.142Z,101013.92
2018-12-17T23:07:30.741Z,101021.36
2018-12-17T23:12:45.410Z,101023.19
2018-12-17T23:17:47.785Z,101024.98
2018-12-17T23:22:51.273Z,101022.96
2018-12-17T23:27:54.807Z,101017.96
2018-12-17T23:32:59.361Z,101027.39
2018-12-17T23:38:02.796Z,101020.40
2018-12-17T23:43:06.121Z,101021.84
2018-12-17T23:53:47.067Z,101018.44
2018-12-17T23:58:50.541Z,101023.51
